createdAt,value
2019-02-03T00:02:06.279Z,41.00
2019-02-03T00:04:32.424Z,41.00
2019-02-03T00:07:03.478Z,41.70
2019-02-03T00:09:27.456Z,40.90
2019-02-03T00:11:53.613Z,41.10
2019-02-03T00:14:20.557Z,41.00
2019-02-03T00:16:46.873Z,41.00
2019-02-03T00:19:13.085Z,41.10
2019-02-03T00:21:39.242Z,41.00
2019-02-03T00:24:05.423Z,41.10
2019-02-03T00:26:31.745Z,41.00
2019-02-03T00:28:57.922Z,41.00
2019-02-03T00:31:24.081Z,41.00
2019-02-03T00:33:50.263Z,41.00
2019-02-03T00:36:16.452Z,40.90
2019-02-03T00:38:42.649Z,40.90
2019-02-03T00:41:08.801Z,40.90
2019-02-03T00:43:35.117Z,40.90
2019-02-03T00:46:01.284Z,40.90
2019-02-03T00:48:27.809Z,41.00
2019-02-03T00:50:53.968Z,41.00
2019-02-03T00:53:20.156Z,40.70
2019-02-03T00:55:46.704Z,41.00
2019-02-03T00:58:12.853Z,41.00
2019-02-03T01:00:39.029Z,41.10
2019-02-03T01:03:05.176Z,41.00
2019-02-03T01:05:31.345Z,40.90
2019-02-03T01:07:57.517Z,40.90
2019-02-03T01:10:23.715Z,41.00
2019-02-03T01:12:49.864Z,41.00
2019-02-03T01:15:16.033Z,41.00
2019-02-03T01:17:42.278Z,41.10
2019-02-03T01:20:08.402Z,41.00
2019-02-03T01:22:34.549Z,41.10
2019-02-03T01:25:00.728Z,41.00
2019-02-03T01:27:26.877Z,41.00
2019-02-03T01:29:53.062Z,41.00
2019-02-03T01:32:19.219Z,41.00
2019-02-03T01:34:45.388Z,41.10
2019-02-03T01:37:12.307Z,41.10
2019-02-03T01:39:38.464Z,41.00
2019-02-03T01:42:04.623Z,41.00
2019-02-03T01:44:30.779Z,41.10
2019-02-03T01:46:56.978Z,41.00
2019-02-03T01:49:23.143Z,41.00
2019-02-03T01:51:49.297Z,41.00
2019-02-03T01:54:15.453Z,41.10
2019-02-03T01:56:41.613Z,41.00
2019-02-03T01:59:07.772Z,41.10
2019-02-03T02:01:33.957Z,41.00
2019-02-03T02:04:00.159Z,41.00
2019-02-03T02:06:26.327Z,40.90
2019-02-03T02:08:52.480Z,40.90
2019-02-03T02:11:18.635Z,41.00
2019-02-03T02:13:44.788Z,41.00
2019-02-03T02:16:10.936Z,41.00
2019-02-03T02:18:37.090Z,40.90
2019-02-03T02:21:03.242Z,40.90
2019-02-03T02:23:29.432Z,41.00
2019-02-03T02:25:55.593Z,41.00
2019-02-03T02:28:21.800Z,41.00
2019-02-03T02:30:48.000Z,41.00
2019-02-03T02:33:14.158Z,41.00
2019-02-03T02:35:40.467Z,41.00
2019-02-03T02:38:07.559Z,41.10
2019-02-03T02:40:32.831Z,41.00
2019-02-03T02:42:59.002Z,41.00
2019-02-03T02:45:25.158Z,41.10
2019-02-03T02:47:51.488Z,41.10
2019-02-03T02:50:17.633Z,41.10
2019-02-03T02:52:43.787Z,41.00
2019-02-03T02:55:09.949Z,41.10
2019-02-03T02:57:36.111Z,41.10
2019-02-03T03:00:02.298Z,41.00
2019-02-03T03:02:28.457Z,41.10
2019-02-03T03:04:54.609Z,41.00
2019-02-03T03:07:20.761Z,41.10
2019-02-03T03:09:46.918Z,41.00
2019-02-03T03:12:13.081Z,41.10
2019-02-03T03:14:39.233Z,41.10
2019-02-03T03:17:05.389Z,41.10
2019-02-03T03:19:31.540Z,41.00
2019-02-03T03:21:57.684Z,41.00
2019-02-03T03:24:24.021Z,41.00
2019-02-03T03:26:50.178Z,41.00
2019-02-03T03:29:16.372Z,41.00
2019-02-03T03:31:42.531Z,40.90
2019-02-03T03:34:08.710Z,41.10
2019-02-03T03:36:34.907Z,41.00
2019-02-03T03:39:01.228Z,41.70
2019-02-03T03:41:27.380Z,41.10
2019-02-03T03:43:53.529Z,41.00
2019-02-03T03:46:19.886Z,41.10
2019-02-03T03:48:46.057Z,41.10
2019-02-03T03:51:12.211Z,41.70
2019-02-03T03:53:38.400Z,41.00
2019-02-03T03:56:05.324Z,41.10
2019-02-03T03:58:31.473Z,41.00
2019-02-03T04:00:57.658Z,41.00
2019-02-03T04:03:23.818Z,41.10
2019-02-03T04:05:50.184Z,41.20
2019-02-03T04:10:48.792Z,41.20
2019-02-03T04:13:15.017Z,41.10
2019-02-03T04:15:41.250Z,41.20
2019-02-03T04:18:07.417Z,41.20
2019-02-03T04:20:33.724Z,41.20
2019-02-03T04:22:59.928Z,41.10
2019-02-03T04:25:30.256Z,41.20
2019-02-03T04:27:56.485Z,41.10
2019-02-03T04:30:22.704Z,41.10
2019-02-03T04:32:48.946Z,41.10
2019-02-03T04:35:15.191Z,41.10
2019-02-03T04:37:41.400Z,41.20
2019-02-03T04:40:07.582Z,41.20
2019-02-03T04:42:33.852Z,41.10
2019-02-03T04:45:00.165Z,41.20
2019-02-03T04:47:26.316Z,41.20
2019-02-03T04:49:52.544Z,41.10
2019-02-03T04:52:18.772Z,41.10
2019-02-03T04:54:45.002Z,41.20
2019-02-03T04:57:11.641Z,41.10
2019-02-03T04:59:37.868Z,41.10
2019-02-03T05:02:04.097Z,41.20
2019-02-03T05:04:30.321Z,41.20
2019-02-03T05:06:56.552Z,41.20
2019-02-03T05:09:22.790Z,41.10
2019-02-03T05:11:54.332Z,41.90
2019-02-03T05:14:20.566Z,41.20
2019-02-03T05:16:46.789Z,41.20
2019-02-03T05:19:13.025Z,41.30
2019-02-03T05:21:39.179Z,41.40
2019-02-03T05:24:05.347Z,41.30
2019-02-03T05:26:31.505Z,41.30
2019-02-03T05:28:57.687Z,41.20
2019-02-03T05:31:24.010Z,41.20
2019-02-03T05:33:50.218Z,41.20
2019-02-03T05:36:16.375Z,41.90
2019-02-03T05:38:43.344Z,41.20
2019-02-03T05:41:09.494Z,41.20
2019-02-03T05:43:35.657Z,41.20
2019-02-03T05:46:01.808Z,41.20
2019-02-03T05:48:27.987Z,41.20
2019-02-03T05:50:54.135Z,41.20
2019-02-03T05:53:20.312Z,41.20
2019-02-03T05:55:46.468Z,41.30
2019-02-03T05:58:12.637Z,41.20
2019-02-03T06:00:38.798Z,41.20
2019-02-03T06:03:05.110Z,41.20
2019-02-03T06:05:31.273Z,41.20
2019-02-03T06:07:57.431Z,41.30
2019-02-03T06:10:23.586Z,41.20
2019-02-03T06:12:49.733Z,41.20
2019-02-03T06:15:15.933Z,41.20
2019-02-03T06:17:42.088Z,41.20
2019-02-03T06:20:08.237Z,41.20
2019-02-03T06:22:34.384Z,41.30
2019-02-03T06:25:00.546Z,41.20
2019-02-03T06:27:26.696Z,41.10
2019-02-03T06:29:52.850Z,41.20
2019-02-03T06:32:24.416Z,41.30
2019-02-03T06:34:54.313Z,41.30
2019-02-03T06:37:20.469Z,41.30
2019-02-03T06:39:48.618Z,41.20
2019-02-03T06:42:14.506Z,41.30
2019-02-03T06:44:39.347Z,41.20
2019-02-03T06:47:05.410Z,41.20
2019-02-03T06:49:31.585Z,41.20
2019-02-03T06:51:57.733Z,41.30
2019-02-03T06:54:23.925Z,41.20
2019-02-03T06:56:50.084Z,41.20
2019-02-03T06:59:16.236Z,41.20
2019-02-03T07:01:42.384Z,41.20
2019-02-03T07:04:08.541Z,41.20
2019-02-03T07:06:34.772Z,41.20
2019-02-03T07:09:00.926Z,41.10
2019-02-03T07:11:27.084Z,41.20
2019-02-03T07:13:53.232Z,41.20
2019-02-03T07:16:19.404Z,41.20
2019-02-03T07:18:45.548Z,41.30
2019-02-03T07:21:11.721Z,41.90
2019-02-03T07:23:37.881Z,42.20
2019-02-03T07:26:04.069Z,42.10
2019-02-03T07:28:30.990Z,41.70
2019-02-03T07:30:57.166Z,41.70
2019-02-03T07:33:23.317Z,41.40
2019-02-03T07:35:49.578Z,41.00
2019-02-03T07:38:15.857Z,40.70
2019-02-03T07:40:42.033Z,40.40
2019-02-03T07:43:12.409Z,40.20
2019-02-03T07:45:38.576Z,40.00
2019-02-03T07:48:04.730Z,39.80
2019-02-03T07:50:31.093Z,39.80
2019-02-03T07:52:57.324Z,39.60
2019-02-03T07:55:23.563Z,39.50
2019-02-03T07:57:49.934Z,39.30
2019-02-03T08:00:16.011Z,39.30
2019-02-03T08:05:13.797Z,39.20
2019-02-03T08:07:40.024Z,39.00
2019-02-03T08:10:06.263Z,39.20
2019-02-03T08:12:32.481Z,38.90
2019-02-03T08:14:58.703Z,38.90
2019-02-03T08:17:24.937Z,38.90
2019-02-03T08:19:51.161Z,38.90
2019-02-03T08:22:17.397Z,38.80
2019-02-03T08:24:43.616Z,38.80
2019-02-03T08:27:09.867Z,38.80
2019-02-03T08:29:36.081Z,38.70
2019-02-03T08:32:02.322Z,38.60
2019-02-03T08:34:28.537Z,38.70
2019-02-03T08:36:54.729Z,38.60
2019-02-03T08:41:52.973Z,38.60
2019-02-03T08:44:19.195Z,38.40
2019-02-03T08:46:45.838Z,38.40
2019-02-03T08:49:12.053Z,38.40
2019-02-03T08:51:38.280Z,38.40
2019-02-03T08:54:04.520Z,38.30
2019-02-03T08:56:30.746Z,38.50
2019-02-03T08:58:56.978Z,38.40
2019-02-03T09:03:55.577Z,38.30
2019-02-03T09:06:21.804Z,38.40
2019-02-03T09:08:48.042Z,38.30
2019-02-03T09:11:14.673Z,38.30
2019-02-03T09:13:40.904Z,38.40
2019-02-03T09:16:07.129Z,38.30
2019-02-03T09:18:35.155Z,38.30
2019-02-03T09:20:59.588Z,38.30
2019-02-03T09:23:26.228Z,38.30
2019-02-03T09:25:52.458Z,38.30
2019-02-03T09:28:18.685Z,38.40
2019-02-03T09:30:44.926Z,38.30
2019-02-03T09:33:11.140Z,38.30
2019-02-03T09:35:37.294Z,38.90
2019-02-03T09:38:03.471Z,38.40
2019-02-03T09:40:29.639Z,38.30
2019-02-03T09:42:55.805Z,38.40
2019-02-03T09:45:21.957Z,38.40
2019-02-03T09:47:48.162Z,38.40
2019-02-03T09:50:14.325Z,38.40
2019-02-03T09:52:40.480Z,38.40
2019-02-03T09:55:06.649Z,38.40
2019-02-03T09:57:32.808Z,38.40
2019-02-03T09:59:58.974Z,38.40
2019-02-03T10:02:25.138Z,38.50
2019-02-03T10:04:51.478Z,38.50
2019-02-03T10:07:18.392Z,38.50
2019-02-03T10:09:44.600Z,38.50
2019-02-03T10:12:10.758Z,38.60
2019-02-03T10:14:36.924Z,38.40
2019-02-03T10:17:03.076Z,38.50
2019-02-03T10:19:29.228Z,38.60
2019-02-03T10:21:55.554Z,38.60
2019-02-03T10:24:21.747Z,38.60
2019-02-03T10:26:47.906Z,38.70
2019-02-03T10:29:14.833Z,38.70
2019-02-03T10:31:40.992Z,38.70
2019-02-03T10:34:07.148Z,39.40
2019-02-03T10:36:33.316Z,38.70
2019-02-03T10:38:59.469Z,38.60
2019-02-03T10:41:25.681Z,38.60
2019-02-03T10:43:51.884Z,38.70
2019-02-03T10:46:18.103Z,38.60
2019-02-03T10:48:46.048Z,38.60
2019-02-03T10:51:12.214Z,39.40
2019-02-03T10:53:38.368Z,38.80
2019-02-03T10:56:04.541Z,38.80
2019-02-03T10:58:30.701Z,38.70
2019-02-03T11:00:56.872Z,38.70
2019-02-03T11:03:23.039Z,38.70
2019-02-03T11:05:49.712Z,38.60
2019-02-03T11:08:15.897Z,38.60
2019-02-03T11:10:42.057Z,38.70
2019-02-03T11:13:08.980Z,38.60
2019-02-03T11:15:35.150Z,38.60
2019-02-03T11:18:01.472Z,38.60
2019-02-03T11:20:28.017Z,38.60
2019-02-03T11:22:54.210Z,38.50
2019-02-03T11:25:20.377Z,38.50
2019-02-03T11:27:46.700Z,38.60
2019-02-03T11:30:12.864Z,38.60
2019-02-03T11:32:39.016Z,38.50
2019-02-03T11:35:05.341Z,38.70
2019-02-03T11:37:31.504Z,38.50
2019-02-03T11:39:57.668Z,38.40
2019-02-03T11:42:23.824Z,38.50
2019-02-03T11:44:50.090Z,38.50
2019-02-03T11:47:16.168Z,38.50
2019-02-03T11:49:42.333Z,38.60
2019-02-03T11:52:08.498Z,38.60
2019-02-03T11:54:34.847Z,38.50
2019-02-03T11:57:01.185Z,38.40
2019-02-03T11:59:27.339Z,38.40
2019-02-03T12:01:53.546Z,38.50
2019-02-03T12:04:19.719Z,38.40
2019-02-03T12:06:45.886Z,38.40
2019-02-03T12:09:12.050Z,38.60
2019-02-03T12:11:38.203Z,38.40
2019-02-03T12:14:04.353Z,38.40
2019-02-03T12:16:30.487Z,38.60
2019-02-03T12:18:56.696Z,38.40
2019-02-03T12:21:22.857Z,38.40
2019-02-03T12:23:49.024Z,38.40
2019-02-03T12:26:15.194Z,38.40
2019-02-03T12:28:41.357Z,38.40
2019-02-03T12:33:39.517Z,38.40
2019-02-03T12:36:05.612Z,38.30
2019-02-03T12:38:31.811Z,38.30
2019-02-03T12:40:57.972Z,38.20
2019-02-03T12:43:24.212Z,38.40
2019-02-03T12:45:50.373Z,38.30
2019-02-03T12:48:16.545Z,38.10
2019-02-03T12:50:42.699Z,38.30
2019-02-03T12:53:08.892Z,38.40
2019-02-03T12:55:35.052Z,38.30
2019-02-03T12:58:01.398Z,38.20
2019-02-03T13:00:28.329Z,38.20
2019-02-03T13:02:54.489Z,38.20
2019-02-03T13:05:20.666Z,38.10
2019-02-03T13:07:46.848Z,38.00
2019-02-03T13:10:16.557Z,38.00
2019-02-03T13:12:39.214Z,38.00
2019-02-03T13:15:05.386Z,38.00
2019-02-03T13:17:32.301Z,38.10
2019-02-03T13:19:58.448Z,38.00
2019-02-03T13:22:24.601Z,37.80
2019-02-03T13:24:50.789Z,37.80
2019-02-03T13:27:17.114Z,37.60
2019-02-03T13:29:43.310Z,37.70
2019-02-03T13:32:11.109Z,37.70
2019-02-03T13:34:35.685Z,37.80
2019-02-03T13:37:01.878Z,37.60
2019-02-03T13:39:28.227Z,37.60
2019-02-03T13:41:54.384Z,38.20
2019-02-03T13:44:21.088Z,37.60
2019-02-03T13:46:46.753Z,37.40
2019-02-03T13:49:12.925Z,37.50
2019-02-03T13:51:39.078Z,37.50
2019-02-03T13:54:05.258Z,37.50
2019-02-03T13:56:31.417Z,37.40
2019-02-03T13:58:57.590Z,37.50
2019-02-03T14:01:23.758Z,37.40
2019-02-03T14:03:49.948Z,37.30
2019-02-03T14:06:16.091Z,37.30
2019-02-03T14:08:42.246Z,37.30
2019-02-03T14:11:08.517Z,37.20
2019-02-03T14:13:34.612Z,37.10
2019-02-03T14:16:00.780Z,37.20
2019-02-03T14:18:26.957Z,37.20
2019-02-03T14:20:53.156Z,37.00
2019-02-03T14:23:20.076Z,37.00
2019-02-03T14:25:46.248Z,37.00
2019-02-03T14:28:12.401Z,37.10
2019-02-03T14:30:40.716Z,36.90
2019-02-03T14:33:04.768Z,36.90
2019-02-03T14:35:32.964Z,36.90
2019-02-03T14:37:57.110Z,36.80
2019-02-03T14:40:23.281Z,36.80
2019-02-03T14:43:00.862Z,37.60
2019-02-03T14:45:16.161Z,36.90
2019-02-03T14:47:42.489Z,37.40
2019-02-03T14:50:09.407Z,36.90
2019-02-03T14:52:35.629Z,36.90
2019-02-03T14:55:01.804Z,36.80
2019-02-03T14:57:27.990Z,36.90
2019-02-03T14:59:54.345Z,36.70
2019-02-03T15:02:20.506Z,36.80
2019-02-03T15:04:46.683Z,36.80
2019-02-03T15:07:12.849Z,37.40
2019-02-03T15:09:39.021Z,36.70
2019-02-03T15:12:05.196Z,36.70
2019-02-03T15:14:31.398Z,36.70
2019-02-03T15:16:57.572Z,36.50
2019-02-03T15:19:23.741Z,36.50
2019-02-03T15:21:49.908Z,36.60
2019-02-03T15:24:16.767Z,36.40
2019-02-03T15:26:42.269Z,36.40
2019-02-03T15:29:08.418Z,36.50
2019-02-03T15:31:34.632Z,36.50
2019-02-03T15:34:00.854Z,36.60
2019-02-03T15:36:27.063Z,36.50
2019-02-03T15:38:53.244Z,36.50
2019-02-03T15:41:24.652Z,36.40
2019-02-03T15:43:50.822Z,36.50
2019-02-03T15:46:17.040Z,36.50
2019-02-03T15:48:43.274Z,36.50
2019-02-03T15:51:09.446Z,36.50
2019-02-03T15:53:35.620Z,36.60
2019-02-03T15:56:01.794Z,36.60
2019-02-03T15:58:28.733Z,36.60
2019-02-03T16:00:54.910Z,36.60
2019-02-03T16:03:21.089Z,36.50
2019-02-03T16:05:47.288Z,36.50
2019-02-03T16:08:13.453Z,36.60
2019-02-03T16:10:39.614Z,36.50
2019-02-03T16:13:05.776Z,36.50
2019-02-03T16:15:32.001Z,36.60
2019-02-03T16:17:58.193Z,36.50
2019-02-03T16:20:24.376Z,36.50
2019-02-03T16:22:50.557Z,36.60
2019-02-03T16:25:16.759Z,36.40
2019-02-03T16:27:42.935Z,36.50
2019-02-03T16:30:09.107Z,36.30
2019-02-03T16:32:35.900Z,36.20
2019-02-03T16:35:02.816Z,36.40
2019-02-03T16:37:29.069Z,36.40
2019-02-03T16:39:55.241Z,36.30
2019-02-03T16:42:21.415Z,36.30
2019-02-03T16:44:48.608Z,36.20
2019-02-03T16:47:14.817Z,36.20
2019-02-03T16:49:41.090Z,36.30
2019-02-03T16:52:07.160Z,36.20
2019-02-03T16:54:33.311Z,36.00
2019-02-03T16:56:59.464Z,35.90
2019-02-03T16:59:25.644Z,36.00
2019-02-03T17:01:51.889Z,35.90
2019-02-03T17:04:18.049Z,35.80
2019-02-03T17:06:44.287Z,36.00
2019-02-03T17:09:10.462Z,35.90
2019-02-03T17:11:36.623Z,35.90
2019-02-03T17:14:02.814Z,35.90
2019-02-03T17:16:28.986Z,35.80
2019-02-03T17:18:55.155Z,35.70
2019-02-03T17:21:21.354Z,35.70
2019-02-03T17:23:47.511Z,35.60
2019-02-03T17:26:13.729Z,35.40
2019-02-03T17:28:39.871Z,35.40
2019-02-03T17:31:06.036Z,35.50
2019-02-03T17:33:32.226Z,35.60
2019-02-03T17:35:58.399Z,35.40
2019-02-03T17:38:24.573Z,35.60
2019-02-03T17:40:51.502Z,35.60
2019-02-03T17:43:17.661Z,35.50
2019-02-03T17:45:43.838Z,35.60
2019-02-03T17:48:09.983Z,35.60
2019-02-03T17:50:36.165Z,35.60
2019-02-03T17:53:02.478Z,35.60
2019-02-03T17:55:28.637Z,35.70
2019-02-03T17:57:54.824Z,35.80
2019-02-03T18:00:21.107Z,35.70
2019-02-03T18:02:47.280Z,35.80
2019-02-03T18:05:13.430Z,36.00
2019-02-03T18:07:39.593Z,36.20
2019-02-03T18:10:05.917Z,36.10
2019-02-03T18:12:32.097Z,35.90
2019-02-03T18:14:58.293Z,36.20
2019-02-03T18:17:24.506Z,35.30
2019-02-03T18:19:50.667Z,34.10
2019-02-03T18:22:16.838Z,33.80
2019-02-03T18:24:42.995Z,34.90
2019-02-03T18:27:09.177Z,36.10
2019-02-03T18:29:35.352Z,35.80
2019-02-03T18:32:02.314Z,36.60
2019-02-03T18:34:28.504Z,36.50
2019-02-03T18:36:54.670Z,36.30
2019-02-03T18:39:20.840Z,36.10
2019-02-03T18:41:47.000Z,36.40
2019-02-03T18:44:13.174Z,36.40
2019-02-03T18:46:39.336Z,36.60
2019-02-03T18:49:05.653Z,36.70
2019-02-03T18:51:31.824Z,36.80
2019-02-03T18:53:58.034Z,36.80
2019-02-03T18:56:24.960Z,37.20
2019-02-03T18:58:53.067Z,37.10
2019-02-03T19:01:17.428Z,37.30
2019-02-03T19:03:43.581Z,37.30
2019-02-03T19:06:09.724Z,37.50
2019-02-03T19:08:35.901Z,37.60
2019-02-03T19:11:02.185Z,37.60
2019-02-03T19:13:28.355Z,37.70
2019-02-03T19:15:54.558Z,37.90
2019-02-03T19:18:20.775Z,37.90
2019-02-03T19:20:46.931Z,38.00
2019-02-03T19:23:13.091Z,38.00
2019-02-03T19:25:39.252Z,38.10
2019-02-03T19:28:05.415Z,38.10
2019-02-03T19:30:31.600Z,38.20
2019-02-03T19:32:57.762Z,38.20
2019-02-03T19:35:23.924Z,38.30
2019-02-03T19:37:50.842Z,38.20
2019-02-03T19:40:17.005Z,38.10
2019-02-03T19:42:43.155Z,38.20
2019-02-03T19:45:09.331Z,38.20
2019-02-03T19:47:35.482Z,38.30
2019-02-03T19:50:02.420Z,38.40
2019-02-03T19:52:28.577Z,38.40
2019-02-03T19:54:54.746Z,38.40
2019-02-03T19:57:20.900Z,38.40
2019-02-03T19:59:47.185Z,38.50
2019-02-03T20:02:13.270Z,38.40
2019-02-03T20:04:39.443Z,38.40
2019-02-03T20:07:06.401Z,38.40
2019-02-03T20:09:32.548Z,38.40
2019-02-03T20:11:58.708Z,38.50
2019-02-03T20:14:24.871Z,38.40
2019-02-03T20:16:51.020Z,38.50
2019-02-03T20:19:17.177Z,38.40
2019-02-03T20:21:43.339Z,38.50
2019-02-03T20:24:09.494Z,38.40
2019-02-03T20:26:35.702Z,38.40
2019-02-03T20:29:02.254Z,38.50
2019-02-03T20:31:28.440Z,38.60
2019-02-03T20:33:54.593Z,38.40
2019-02-03T20:36:20.744Z,39.10
2019-02-03T20:38:46.911Z,38.40
2019-02-03T20:41:13.081Z,39.10
2019-02-03T20:43:39.245Z,38.40
2019-02-03T20:46:05.448Z,38.40
2019-02-03T20:48:31.768Z,38.50
2019-02-03T20:50:57.947Z,38.40
2019-02-03T20:53:24.100Z,38.30
2019-02-03T20:55:50.257Z,38.40
2019-02-03T20:58:16.402Z,38.40
2019-02-03T21:00:42.562Z,38.40
2019-02-03T21:03:09.646Z,38.30
2019-02-03T21:05:35.820Z,38.30
2019-02-03T21:08:01.970Z,38.30
2019-02-03T21:10:28.137Z,38.30
2019-02-03T21:12:54.468Z,38.40
2019-02-03T21:15:20.631Z,39.00
2019-02-03T21:17:46.789Z,38.30
2019-02-03T21:20:12.947Z,38.40
2019-02-03T21:22:39.135Z,38.30
2019-02-03T21:25:05.452Z,38.30
2019-02-03T21:27:31.617Z,38.40
2019-02-03T21:29:57.763Z,38.40
2019-02-03T21:32:23.941Z,38.40
2019-02-03T21:34:50.120Z,38.40
2019-02-03T21:37:16.272Z,38.30
2019-02-03T21:39:42.424Z,38.20
2019-02-03T21:42:08.604Z,38.30
2019-02-03T21:44:35.525Z,38.40
2019-02-03T21:47:01.688Z,38.30
2019-02-03T21:49:27.843Z,38.30
2019-02-03T21:51:54.003Z,38.30
2019-02-03T21:54:20.173Z,38.20
2019-02-03T21:56:46.324Z,38.30
2019-02-03T21:59:12.524Z,38.30
2019-02-03T22:01:38.680Z,38.30
2019-02-03T22:04:04.840Z,38.20
2019-02-03T22:06:31.008Z,38.30
2019-02-03T22:08:57.177Z,38.40
2019-02-03T22:11:23.331Z,38.20
2019-02-03T22:13:50.280Z,38.20
2019-02-03T22:16:16.440Z,38.20
2019-02-03T22:18:42.632Z,38.30
2019-02-03T22:21:08.790Z,38.30
2019-02-03T22:23:34.940Z,38.40
2019-02-03T22:26:01.268Z,38.40
2019-02-03T22:28:27.425Z,38.30
2019-02-03T22:30:53.585Z,38.30
2019-02-03T22:33:20.509Z,38.30
2019-02-03T22:35:46.707Z,38.30
2019-02-03T22:38:12.859Z,38.20
2019-02-03T22:40:39.003Z,38.20
2019-02-03T22:43:05.160Z,38.20
2019-02-03T22:45:31.332Z,38.10
2019-02-03T22:47:57.492Z,38.20
2019-02-03T22:50:23.664Z,38.20
2019-02-03T22:52:49.817Z,38.20
2019-02-03T22:55:16.024Z,38.20
2019-02-03T22:57:42.180Z,38.20
2019-02-03T23:00:08.345Z,38.10
2019-02-03T23:02:35.269Z,38.10
2019-02-03T23:05:01.442Z,38.10
2019-02-03T23:07:27.613Z,38.10
2019-02-03T23:09:53.776Z,38.10
2019-02-03T23:12:19.990Z,38.10
2019-02-03T23:14:46.135Z,38.10
2019-02-03T23:17:12.292Z,38.00
2019-02-03T23:19:38.433Z,38.10
2019-02-03T23:22:04.585Z,38.00
2019-02-03T23:24:30.736Z,38.00
2019-02-03T23:26:56.884Z,38.00
2019-02-03T23:29:23.045Z,38.00
2019-02-03T23:31:49.250Z,38.00
2019-02-03T23:34:15.403Z,38.00
2019-02-03T23:36:41.573Z,38.00
2019-02-03T23:39:07.738Z,38.00
2019-02-03T23:41:33.904Z,38.60
2019-02-03T23:44:00.188Z,37.90
2019-02-03T23:46:29.767Z,37.90
2019-02-03T23:48:52.468Z,37.80
2019-02-03T23:51:18.937Z,37.90
2019-02-03T23:53:45.097Z,38.00
2019-02-03T23:56:11.245Z,37.90
2019-02-03T23:58:37.417Z,38.00
